Pico Rivera, California
Current Conditions -  °F | °C
As of 5:53 PM on Thursday 20 Nov 2014 (Local Time) from KFUL Reporting Station
Clear Clear  
Wind Chill: 64°   Ceiling: Unl
Heat Index: 64°   Visibility: 10mi
Dew Point: 55°   Wind: 6mph
Humidity: 72%   Direction: 240°WSW
Pressure: 30"   Gusts: NA
Location:  33.98°N, 118.08°W
Report Text: KFUL 210153Z 24005KT 10SM CLR 18/13 A3000 RMK AO2 SLP159 T01780128
Loading
Personal Weather Stations






























Interactive Weather Map New forecast layout! Learn more

10-Day Weather Forecast

Advertisements
Track Severe Weather on mobile